createdAt,value
2024-05-09T00:02:01.251Z,3.35
2024-05-09T00:04:03.759Z,3.42
2024-05-09T00:06:08.100Z,3.22
2024-05-09T00:08:11.073Z,3.42
2024-05-09T00:10:22.365Z,3.20
2024-05-09T00:12:31.348Z,4.03
2024-05-09T00:14:33.763Z,3.92
2024-05-09T00:16:36.120Z,3.53
2024-05-09T00:18:38.459Z,3.45
2024-05-09T00:20:41.449Z,3.30
2024-05-09T00:22:43.967Z,3.70
2024-05-09T00:24:46.241Z,3.85
2024-05-09T00:26:48.468Z,3.67
2024-05-09T00:28:50.833Z,3.53
2024-05-09T00:30:53.346Z,3.45
2024-05-09T00:32:55.749Z,3.25
2024-05-09T00:34:58.213Z,3.83
2024-05-09T00:37:00.513Z,3.45
2024-05-09T00:39:02.778Z,3.90
2024-05-09T00:41:05.167Z,3.58
2024-05-09T00:43:07.551Z,3.30
2024-05-09T00:45:09.821Z,3.80
2024-05-09T00:47:12.245Z,3.92
2024-05-09T00:49:14.638Z,3.65
2024-05-09T00:51:17.124Z,4.00
2024-05-09T00:53:19.525Z,3.60
2024-05-09T00:55:21.837Z,3.47
2024-05-09T00:57:24.584Z,3.75
2024-05-09T01:01:29.388Z,3.97
2024-05-09T01:03:31.845Z,3.78
2024-05-09T01:05:35.316Z,3.58
2024-05-09T01:07:37.802Z,3.28
2024-05-09T01:09:40.054Z,3.90
2024-05-09T01:11:42.453Z,3.97
2024-05-09T01:13:47.951Z,3.97
2024-05-09T01:15:53.067Z,3.95
2024-05-09T01:17:56.502Z,3.58
2024-05-09T01:19:59.071Z,4.05
2024-05-09T01:22:01.331Z,4.45
2024-05-09T01:24:03.639Z,3.88
2024-05-09T01:26:05.912Z,4.40
2024-05-09T01:28:08.295Z,4.00
2024-05-09T01:30:17.021Z,3.28
2024-05-09T01:32:23.277Z,3.83
2024-05-09T01:34:26.798Z,3.58
2024-05-09T01:36:29.140Z,3.85
2024-05-09T01:38:31.545Z,4.25
2024-05-09T01:40:38.508Z,4.07
2024-05-09T01:42:42.376Z,4.32
2024-05-09T01:44:44.610Z,4.20
2024-05-09T01:46:46.887Z,4.63
2024-05-09T01:48:49.380Z,4.07
2024-05-09T01:50:51.758Z,4.10
2024-05-09T01:52:54.101Z,3.97
2024-05-09T01:54:56.400Z,3.97
2024-05-09T01:56:58.634Z,4.03
2024-05-09T01:59:02.034Z,4.18
2024-05-09T02:01:04.584Z,3.80
2024-05-09T02:03:10.342Z,4.00
2024-05-09T02:05:14.102Z,4.03
2024-05-09T02:09:18.952Z,4.10
2024-05-09T02:11:21.228Z,4.57
2024-05-09T02:13:23.539Z,4.60
2024-05-09T02:15:25.770Z,4.43
2024-05-09T02:17:28.067Z,4.55
2024-05-09T02:19:30.469Z,4.50
2024-05-09T02:21:36.822Z,4.20
2024-05-09T02:23:39.057Z,4.85
2024-05-09T02:25:44.435Z,4.40
2024-05-09T02:27:46.736Z,4.47
2024-05-09T02:29:48.991Z,4.47
2024-05-09T02:31:51.312Z,5.38
2024-05-09T02:33:53.947Z,5.50
2024-05-09T02:35:56.357Z,4.43
2024-05-09T02:37:58.674Z,5.18
2024-05-09T02:40:00.955Z,4.72
2024-05-09T02:42:03.319Z,4.93
2024-05-09T02:44:05.727Z,5.03
2024-05-09T02:46:07.981Z,4.38
2024-05-09T02:48:14.120Z,4.90
2024-05-09T02:50:25.962Z,4.82
2024-05-09T02:52:32.477Z,4.38
2024-05-09T02:54:34.687Z,5.30
2024-05-09T02:56:37.061Z,4.35
2024-05-09T02:58:39.402Z,4.47
2024-05-09T03:00:43.009Z,4.70
2024-05-09T03:02:45.647Z,4.70
2024-05-09T03:04:48.266Z,4.75
2024-05-09T03:06:50.644Z,4.38
2024-05-09T03:08:52.883Z,5.30
2024-05-09T03:10:55.169Z,4.47
2024-05-09T03:12:57.464Z,4.43
2024-05-09T03:14:59.706Z,4.78
2024-05-09T03:17:02.053Z,4.95
2024-05-09T03:19:04.459Z,4.43
2024-05-09T03:21:07.419Z,4.15
2024-05-09T03:23:10.424Z,4.35
2024-05-09T03:25:12.831Z,4.63
2024-05-09T03:27:15.104Z,5.10
2024-05-09T03:29:17.433Z,5.05
2024-05-09T03:31:19.706Z,4.43
2024-05-09T03:33:22.281Z,4.80
2024-05-09T03:35:24.954Z,4.93
2024-05-09T03:37:27.308Z,4.47
2024-05-09T03:39:29.516Z,4.90
2024-05-09T03:41:31.880Z,5.07
2024-05-09T03:43:34.240Z,4.18
2024-05-09T03:45:36.541Z,4.55
2024-05-09T03:47:38.933Z,4.55
2024-05-09T03:49:41.297Z,4.53
2024-05-09T03:51:43.883Z,4.57
2024-05-09T03:53:46.163Z,3.75
2024-05-09T03:55:48.520Z,4.20
2024-05-09T03:57:50.898Z,4.63
2024-05-09T03:59:53.111Z,4.05
2024-05-09T04:01:55.804Z,5.22
2024-05-09T04:03:58.207Z,4.55
2024-05-09T04:06:00.468Z,3.83
2024-05-09T04:08:02.862Z,4.25
2024-05-09T04:10:08.882Z,4.45
2024-05-09T04:12:11.493Z,4.10
2024-05-09T04:14:13.874Z,4.00
2024-05-09T04:16:16.260Z,4.80
2024-05-09T04:18:18.732Z,4.57
2024-05-09T04:20:32.345Z,4.18
2024-05-09T04:22:40.220Z,4.28
2024-05-09T04:24:42.468Z,4.95
2024-05-09T04:26:44.730Z,4.97
2024-05-09T04:28:47.021Z,5.35
2024-05-09T04:30:49.473Z,5.18
2024-05-09T04:32:51.940Z,5.10
2024-05-09T04:34:54.320Z,4.95
2024-05-09T04:36:56.608Z,4.65
2024-05-09T04:38:58.839Z,5.18
2024-05-09T04:41:04.180Z,4.45
2024-05-09T04:43:07.427Z,4.97
2024-05-09T04:45:09.904Z,4.80
2024-05-09T04:47:12.356Z,5.25
2024-05-09T04:49:15.002Z,4.68
2024-05-09T04:53:19.760Z,4.55
2024-05-09T04:55:21.988Z,4.95
2024-05-09T04:57:24.212Z,5.13
2024-05-09T04:59:26.600Z,5.50
2024-05-09T05:01:29.002Z,4.75
2024-05-09T05:03:31.543Z,4.60
2024-05-09T05:07:36.226Z,4.65
2024-05-09T05:09:38.450Z,5.00
2024-05-09T05:11:40.928Z,4.40
2024-05-09T05:13:43.245Z,4.60
2024-05-09T05:15:52.260Z,5.47
2024-05-09T05:17:54.687Z,4.68
2024-05-09T05:19:57.845Z,5.05
2024-05-09T05:22:00.174Z,5.55
2024-05-09T05:24:02.414Z,4.90
2024-05-09T05:26:05.837Z,4.60
2024-05-09T05:28:08.172Z,4.60
2024-05-09T05:30:17.565Z,4.93
2024-05-09T05:34:25.949Z,4.70
2024-05-09T05:36:28.202Z,5.10
2024-05-09T05:38:30.542Z,4.90
2024-05-09T05:40:36.790Z,5.25
2024-05-09T05:42:40.528Z,5.20
2024-05-09T05:44:42.776Z,4.95
2024-05-09T05:46:45.014Z,5.22
2024-05-09T05:48:47.488Z,4.95
2024-05-09T05:50:49.920Z,4.57
2024-05-09T05:52:52.291Z,8.07
2024-05-09T05:54:54.726Z,6.63
2024-05-09T05:56:58.846Z,5.80
2024-05-09T05:59:01.187Z,5.22
2024-05-09T06:01:03.644Z,4.30
2024-05-09T06:03:06.322Z,4.40
2024-05-09T06:05:10.118Z,4.38
2024-05-09T06:07:12.465Z,4.22
2024-05-09T06:09:14.787Z,4.50
2024-05-09T06:11:17.151Z,4.57
2024-05-09T06:13:20.675Z,4.20
2024-05-09T06:15:22.942Z,4.40
2024-05-09T06:17:25.363Z,4.00
2024-05-09T06:19:27.781Z,4.85
2024-05-09T06:21:30.219Z,4.65
2024-05-09T06:23:32.658Z,4.00
2024-05-09T06:25:38.173Z,4.10
2024-05-09T06:27:40.681Z,4.57
2024-05-09T06:29:42.912Z,4.70
2024-05-09T06:31:45.388Z,5.25
2024-05-09T06:33:47.895Z,4.40
2024-05-09T06:35:50.458Z,4.82
2024-05-09T06:37:52.784Z,4.13
2024-05-09T06:39:55.124Z,4.47
2024-05-09T06:41:57.422Z,3.63
2024-05-09T06:43:59.720Z,3.88
2024-05-09T06:46:02.062Z,4.43
2024-05-09T06:48:04.968Z,4.28
2024-05-09T06:50:13.345Z,4.63
2024-05-09T06:52:22.726Z,4.40
2024-05-09T06:54:24.948Z,4.00
2024-05-09T06:56:27.342Z,4.30
2024-05-09T06:58:29.610Z,3.75
2024-05-09T07:00:38.570Z,4.13
2024-05-09T07:02:43.193Z,3.70
2024-05-09T07:04:45.513Z,3.88
2024-05-09T07:06:47.812Z,4.05
2024-05-09T07:08:52.369Z,4.15
2024-05-09T07:10:55.026Z,4.30
2024-05-09T07:12:57.323Z,3.67
2024-05-09T07:14:59.585Z,3.17
2024-05-09T07:17:02.042Z,4.03
2024-05-09T07:21:07.248Z,3.63
2024-05-09T07:23:10.971Z,3.60
2024-05-09T07:25:13.436Z,3.72
2024-05-09T07:27:15.676Z,4.18
2024-05-09T07:29:17.971Z,3.75
2024-05-09T07:31:20.277Z,3.85
2024-05-09T07:33:24.033Z,5.05
2024-05-09T07:35:27.285Z,4.32
2024-05-09T07:37:29.886Z,4.43
2024-05-09T07:39:32.132Z,3.38
2024-05-09T07:41:34.550Z,3.45
2024-05-09T07:43:36.842Z,3.22
2024-05-09T07:45:48.717Z,3.22
2024-05-09T07:49:44.163Z,3.88
2024-05-09T07:53:30.376Z,3.42
2024-05-09T07:54:45.766Z,2.95
2024-05-09T07:56:48.205Z,3.58
2024-05-09T07:58:51.764Z,3.47
2024-05-09T08:00:54.898Z,4.28
2024-05-09T08:02:57.413Z,4.07
2024-05-09T08:04:59.750Z,4.15
2024-05-09T08:07:02.197Z,3.10
2024-05-09T08:09:08.132Z,3.45
2024-05-09T08:11:15.945Z,2.60
2024-05-09T08:13:18.412Z,2.45
2024-05-09T08:15:20.727Z,3.13
2024-05-09T08:17:23.147Z,2.72
2024-05-09T08:19:25.772Z,3.08
2024-05-09T08:21:29.936Z,3.30
2024-05-09T08:23:32.393Z,3.17
2024-05-09T08:25:34.668Z,2.67
2024-05-09T08:27:37.176Z,2.80
2024-05-09T08:29:39.563Z,2.60
2024-05-09T08:31:41.980Z,3.25
2024-05-09T08:33:47.536Z,3.28
2024-05-09T08:35:50.112Z,2.60
2024-05-09T08:37:53.722Z,2.65
2024-05-09T08:39:56.204Z,2.17
2024-05-09T08:41:58.443Z,2.75
2024-05-09T08:44:00.934Z,2.80
2024-05-09T08:46:03.261Z,2.50
2024-05-09T08:48:08.459Z,2.80
2024-05-09T08:50:16.709Z,2.55
2024-05-09T08:52:26.588Z,3.03
2024-05-09T08:54:30.635Z,2.70
2024-05-09T08:56:32.903Z,2.53
2024-05-09T08:58:35.229Z,2.80
2024-05-09T09:00:38.023Z,2.80
2024-05-09T09:02:40.439Z,2.83
2024-05-09T09:04:56.523Z,2.97
2024-05-09T09:07:00.291Z,2.55
2024-05-09T09:09:03.353Z,2.20
2024-05-09T09:11:05.918Z,2.40
2024-05-09T09:13:09.934Z,2.20
2024-05-09T09:15:12.381Z,2.60
2024-05-09T09:17:15.815Z,2.65
2024-05-09T09:19:18.935Z,2.30
2024-05-09T09:21:21.280Z,2.78
2024-05-09T09:23:23.565Z,2.30
2024-05-09T09:25:25.861Z,1.98
2024-05-09T09:27:28.138Z,2.42
2024-05-09T09:29:31.781Z,2.30
2024-05-09T09:31:34.247Z,2.63
2024-05-09T09:35:45.174Z,2.33
2024-05-09T09:37:47.434Z,2.60
2024-05-09T09:39:49.766Z,2.78
2024-05-09T09:41:52.012Z,2.15
2024-05-09T09:43:54.287Z,2.30
2024-05-09T09:45:59.971Z,3.53
2024-05-09T09:48:02.462Z,3.10
2024-05-09T09:50:09.567Z,2.95
2024-05-09T09:52:14.618Z,3.20
2024-05-09T09:54:17.750Z,3.00
2024-05-09T09:56:20.435Z,2.63
2024-05-09T10:00:30.652Z,2.58
2024-05-09T10:02:35.509Z,2.88
2024-05-09T10:04:37.909Z,3.08
2024-05-09T10:06:43.286Z,3.58
2024-05-09T10:08:46.997Z,2.80
2024-05-09T10:10:49.500Z,3.35
2024-05-09T10:13:20.183Z,3.10
2024-05-09T10:15:22.523Z,2.88
2024-05-09T10:17:24.977Z,3.00
2024-05-09T10:21:30.127Z,2.40
2024-05-09T10:23:33.770Z,3.03
2024-05-09T10:25:36.568Z,2.22
2024-05-09T10:27:38.923Z,2.75
2024-05-09T10:29:53.048Z,3.20
2024-05-09T10:31:55.349Z,2.58
2024-05-09T10:33:57.742Z,3.53
2024-05-09T10:38:11.296Z,3.30
2024-05-09T10:40:23.507Z,3.00
2024-05-09T10:42:31.452Z,2.70
2024-05-09T10:44:37.890Z,3.80
2024-05-09T10:46:40.129Z,3.00
2024-05-09T10:48:43.765Z,2.88
2024-05-09T10:50:47.179Z,2.70
2024-05-09T10:52:49.403Z,3.35
2024-05-09T10:54:52.477Z,2.67
2024-05-09T10:56:57.956Z,3.20
2024-05-09T10:59:00.305Z,3.03
2024-05-09T11:03:11.721Z,3.40
2024-05-09T11:05:14.169Z,3.47
2024-05-09T11:07:17.802Z,3.30
2024-05-09T11:09:20.082Z,3.20
2024-05-09T11:11:22.438Z,3.10
2024-05-09T11:13:31.659Z,2.95
2024-05-09T11:15:41.308Z,2.65
2024-05-09T11:17:43.797Z,3.25
2024-05-09T11:19:46.948Z,2.78
2024-05-09T11:21:52.444Z,2.70
2024-05-09T11:23:54.860Z,2.70
2024-05-09T11:25:58.305Z,2.72
2024-05-09T11:28:01.474Z,2.30
2024-05-09T11:30:04.459Z,2.90
2024-05-09T11:32:09.043Z,2.58
2024-05-09T11:34:11.461Z,2.63
2024-05-09T11:36:14.105Z,2.90
2024-05-09T11:38:16.404Z,2.70
2024-05-09T11:40:25.256Z,2.42
2024-05-09T11:48:38.110Z,2.38
2024-05-09T11:50:40.553Z,2.33
2024-05-09T11:52:42.909Z,2.83
2024-05-09T11:54:45.318Z,2.60
2024-05-09T11:56:47.584Z,2.90
2024-05-09T11:58:49.868Z,2.63
2024-05-09T12:00:52.312Z,2.55
2024-05-09T12:02:56.354Z,2.83
2024-05-09T12:04:58.759Z,2.88
2024-05-09T12:07:01.100Z,3.05
2024-05-09T12:09:03.405Z,2.83
2024-05-09T12:11:05.911Z,3.20
2024-05-09T12:13:08.562Z,3.10
2024-05-09T12:15:10.908Z,3.13
2024-05-09T12:17:13.600Z,3.03
2024-05-09T12:19:17.878Z,2.80
2024-05-09T12:21:20.175Z,2.70
2024-05-09T12:23:22.407Z,2.58
2024-05-09T12:25:24.720Z,2.58
2024-05-09T12:27:27.051Z,2.50
2024-05-09T12:29:29.385Z,2.85
2024-05-09T12:31:31.768Z,2.60
2024-05-09T12:33:34.158Z,2.45
2024-05-09T12:35:36.577Z,2.20
2024-05-09T12:37:38.819Z,1.98
2024-05-09T12:41:43.311Z,2.45
2024-05-09T12:43:45.570Z,2.60
2024-05-09T12:45:49.022Z,2.60
2024-05-09T12:47:51.737Z,2.20
2024-05-09T12:49:54.095Z,2.58
2024-05-09T12:53:58.674Z,2.70
2024-05-09T12:56:02.989Z,2.40
2024-05-09T12:58:06.864Z,2.10
2024-05-09T13:00:17.049Z,1.92
2024-05-09T13:02:23.300Z,2.17
2024-05-09T13:04:25.824Z,2.00
2024-05-09T13:06:28.332Z,2.47
2024-05-09T13:08:30.617Z,2.55
2024-05-09T13:10:33.638Z,2.10
2024-05-09T13:12:36.072Z,2.10
2024-05-09T13:14:38.303Z,2.20
2024-05-09T13:16:40.553Z,2.30
2024-05-09T13:18:44.421Z,2.40
2024-05-09T13:20:46.798Z,2.13
2024-05-09T13:22:49.133Z,2.40
2024-05-09T13:24:51.428Z,2.45
2024-05-09T13:26:53.797Z,2.30
2024-05-09T13:28:56.167Z,2.38
2024-05-09T13:30:59.035Z,2.10
2024-05-09T13:33:01.424Z,2.38
2024-05-09T13:35:03.756Z,2.40
2024-05-09T13:37:06.099Z,2.00
2024-05-09T13:39:08.439Z,2.38
2024-05-09T13:41:11.804Z,2.42
2024-05-09T13:43:14.366Z,2.17
2024-05-09T13:45:16.727Z,2.70
2024-05-09T13:47:19.168Z,2.10
2024-05-09T13:49:21.603Z,2.20
2024-05-09T13:51:23.897Z,1.75
2024-05-09T13:53:26.348Z,2.22
2024-05-09T13:55:28.617Z,2.30
2024-05-09T13:57:31.574Z,2.20
2024-05-09T13:59:33.910Z,2.25
2024-05-09T14:01:36.251Z,2.53
2024-05-09T14:03:38.741Z,1.90
2024-05-09T14:05:41.475Z,2.00
2024-05-09T14:07:44.512Z,2.15
2024-05-09T14:09:47.431Z,2.10
2024-05-09T14:11:49.694Z,2.53
2024-05-09T14:13:52.004Z,2.03
2024-05-09T14:15:54.441Z,2.15
2024-05-09T14:17:56.785Z,1.77
2024-05-09T14:19:59.066Z,2.22
2024-05-09T14:22:01.380Z,2.22
2024-05-09T14:24:03.928Z,2.10
2024-05-09T14:26:06.167Z,1.90
2024-05-09T14:28:08.617Z,2.00
2024-05-09T14:30:18.237Z,1.85
2024-05-09T14:32:28.219Z,2.28
2024-05-09T14:34:31.266Z,1.98
2024-05-09T14:36:33.992Z,1.73
2024-05-09T14:38:36.305Z,2.20
2024-05-09T14:40:42.751Z,2.13
2024-05-09T14:42:46.391Z,1.80
2024-05-09T14:44:48.951Z,1.73
2024-05-09T14:46:51.254Z,2.03
2024-05-09T14:48:53.754Z,1.50
2024-05-09T14:50:56.119Z,2.00
2024-05-09T14:52:58.378Z,2.30
2024-05-09T14:55:01.201Z,1.83
2024-05-09T14:57:03.998Z,1.73
2024-05-09T14:59:07.093Z,1.90
2024-05-09T15:01:09.460Z,1.85
2024-05-09T15:03:11.957Z,1.70
2024-05-09T15:05:14.516Z,1.77
2024-05-09T15:07:16.874Z,1.77
2024-05-09T15:09:19.193Z,1.85
2024-05-09T15:13:25.007Z,1.85
2024-05-09T15:15:27.359Z,1.88
2024-05-09T15:19:33.481Z,1.98
2024-05-09T15:21:35.915Z,1.80
2024-05-09T15:23:38.267Z,2.00
2024-05-09T15:25:40.797Z,1.80
2024-05-09T15:27:43.982Z,2.15
2024-05-09T15:29:46.254Z,1.88
2024-05-09T15:31:48.985Z,2.00
2024-05-09T15:33:51.389Z,1.98
2024-05-09T15:35:53.769Z,2.30
2024-05-09T15:37:56.112Z,1.90
2024-05-09T15:39:58.969Z,1.85
2024-05-09T15:42:02.564Z,1.75
2024-05-09T15:44:04.991Z,2.13
2024-05-09T15:46:07.301Z,1.70
2024-05-09T15:48:10.576Z,1.92
2024-05-09T15:50:20.428Z,1.95
2024-05-09T15:52:30.521Z,1.65
2024-05-09T15:54:32.791Z,1.85
2024-05-09T15:56:35.053Z,2.10
2024-05-09T16:00:42.390Z,1.80
2024-05-09T16:02:46.595Z,1.90
2024-05-09T16:04:49.045Z,1.70
2024-05-09T16:06:51.454Z,2.13
2024-05-09T16:08:53.761Z,2.13
2024-05-09T16:12:59.283Z,1.88
2024-05-09T16:15:01.583Z,1.58
2024-05-09T16:19:06.559Z,1.55
2024-05-09T16:21:08.866Z,1.75
2024-05-09T16:25:13.573Z,2.08
2024-05-09T16:27:15.906Z,1.92
2024-05-09T16:29:18.736Z,2.10
2024-05-09T16:31:21.043Z,1.63
2024-05-09T16:35:28.338Z,1.50
2024-05-09T16:39:32.850Z,1.60
2024-05-09T16:41:35.189Z,1.80
2024-05-09T16:45:40.964Z,1.80
2024-05-09T16:47:43.329Z,1.83
2024-05-09T16:51:47.907Z,2.05
2024-05-09T16:55:52.767Z,2.00
2024-05-09T16:57:55.139Z,1.80
2024-05-09T17:02:00.226Z,1.40
2024-05-09T17:04:02.918Z,1.50
2024-05-09T17:06:06.563Z,1.70
2024-05-09T17:08:08.963Z,1.80
2024-05-09T17:12:28.641Z,1.80
2024-05-09T17:14:30.872Z,2.10
2024-05-09T17:16:33.294Z,1.55
2024-05-09T17:20:38.225Z,1.77
2024-05-09T17:22:40.747Z,1.98
2024-05-09T17:24:43.069Z,2.17
2024-05-09T17:26:46.073Z,1.90
2024-05-09T17:28:48.334Z,1.60
2024-05-09T17:30:50.650Z,1.80
2024-05-09T17:32:53.087Z,1.73
2024-05-09T17:36:57.758Z,1.63
2024-05-09T17:39:00.023Z,4.65
2024-05-09T17:41:02.456Z,3.28
2024-05-09T17:43:05.812Z,1.75
2024-05-09T17:45:08.670Z,1.50
2024-05-09T17:47:11.239Z,1.90
2024-05-09T17:49:13.750Z,1.50
2024-05-09T17:51:16.109Z,1.70
2024-05-09T17:53:19.038Z,2.00
2024-05-09T17:55:21.615Z,1.48
2024-05-09T17:59:26.280Z,1.75
2024-05-09T18:01:28.683Z,1.67
2024-05-09T18:03:31.286Z,1.77
2024-05-09T18:05:36.043Z,1.77
2024-05-09T18:07:39.330Z,1.98
2024-05-09T18:09:41.720Z,1.50
2024-05-09T18:11:44.114Z,1.67
2024-05-09T18:13:47.424Z,2.08
2024-05-09T18:15:49.741Z,1.80
2024-05-09T18:17:52.390Z,1.63
2024-05-09T18:19:55.077Z,2.30
2024-05-09T18:21:57.474Z,2.30
2024-05-09T18:24:00.330Z,2.00
2024-05-09T18:26:03.338Z,2.53
2024-05-09T18:28:06.487Z,2.17
2024-05-09T18:30:23.775Z,2.03
2024-05-09T18:32:30.454Z,2.58
2024-05-09T18:34:32.868Z,2.60
2024-05-09T18:36:35.202Z,2.17
2024-05-09T18:38:37.582Z,2.53
2024-05-09T18:40:41.896Z,2.20
2024-05-09T18:42:46.008Z,1.92
2024-05-09T18:44:48.299Z,1.90
2024-05-09T18:46:51.316Z,2.15
2024-05-09T18:48:53.867Z,2.08
2024-05-09T18:52:59.197Z,2.63
2024-05-09T18:55:01.710Z,2.72
2024-05-09T18:57:04.201Z,3.28
2024-05-09T18:59:06.596Z,3.83
2024-05-09T19:01:09.081Z,4.88
2024-05-09T19:03:13.513Z,5.53
2024-05-09T19:05:16.942Z,6.63
2024-05-09T19:07:19.713Z,6.68
2024-05-09T19:09:22.130Z,5.63
2024-05-09T19:11:24.384Z,5.45
2024-05-09T19:13:26.761Z,4.55
2024-05-09T19:15:29.161Z,4.72
2024-05-09T19:17:31.765Z,4.07
2024-05-09T19:21:39.097Z,4.15
2024-05-09T19:23:47.267Z,3.25
2024-05-09T19:25:54.269Z,3.25
2024-05-09T19:27:56.666Z,3.13
2024-05-09T19:29:58.994Z,2.70
2024-05-09T19:32:01.263Z,2.95
2024-05-09T19:34:03.699Z,2.75
2024-05-09T19:36:06.970Z,2.67
2024-05-09T19:38:09.203Z,3.17
2024-05-09T19:40:18.253Z,3.75
2024-05-09T19:42:30.071Z,3.45
2024-05-09T19:44:32.388Z,3.17
2024-05-09T19:46:34.972Z,2.65
2024-05-09T19:48:37.507Z,3.00
2024-05-09T19:52:47.127Z,2.75
2024-05-09T19:54:50.238Z,2.97
2024-05-09T19:56:52.492Z,3.47
2024-05-09T19:58:55.708Z,3.72
2024-05-09T20:00:58.160Z,2.45
2024-05-09T20:03:00.679Z,3.40
2024-05-09T20:05:03.920Z,2.78
2024-05-09T20:07:06.460Z,3.42
2024-05-09T20:09:08.755Z,3.30
2024-05-09T20:11:11.178Z,3.17
2024-05-09T20:13:14.080Z,3.42
2024-05-09T20:15:16.562Z,3.60
2024-05-09T20:17:18.822Z,3.75
2024-05-09T20:19:21.128Z,3.70
2024-05-09T20:21:24.883Z,3.95
2024-05-09T20:23:27.364Z,4.40
2024-05-09T20:25:29.640Z,4.35
2024-05-09T20:27:31.942Z,4.82
2024-05-09T20:29:34.212Z,4.80
2024-05-09T20:31:36.516Z,4.05
2024-05-09T20:33:39.042Z,4.47
2024-05-09T20:35:41.565Z,4.50
2024-05-09T20:37:43.802Z,4.18
2024-05-09T20:39:46.066Z,3.60
2024-05-09T20:41:48.368Z,4.05
2024-05-09T20:43:50.704Z,4.00
2024-05-09T20:45:53.099Z,4.20
2024-05-09T20:47:55.547Z,4.75
2024-05-09T20:49:58.033Z,4.60
2024-05-09T20:52:00.450Z,4.75
2024-05-09T20:54:02.812Z,4.53
2024-05-09T20:56:05.574Z,4.63
2024-05-09T20:58:08.581Z,4.20
2024-05-09T21:00:18.361Z,5.05
2024-05-09T21:02:21.821Z,4.00
2024-05-09T21:06:26.871Z,4.72
2024-05-09T21:08:29.108Z,4.35
2024-05-09T21:10:33.091Z,4.40
2024-05-09T21:12:36.452Z,4.97
2024-05-09T21:14:38.779Z,5.00
2024-05-09T21:16:41.317Z,4.72
2024-05-09T21:20:46.067Z,4.90
2024-05-09T21:22:48.383Z,4.90
2024-05-09T21:24:50.663Z,6.03
2024-05-09T21:26:53.179Z,5.18
2024-05-09T21:28:55.502Z,6.13
2024-05-09T21:30:58.015Z,5.22
2024-05-09T21:33:00.471Z,5.25
2024-05-09T21:35:02.769Z,4.75
2024-05-09T21:37:05.439Z,4.28
2024-05-09T21:41:12.109Z,4.43
2024-05-09T21:43:14.654Z,4.28
2024-05-09T21:45:17.199Z,4.63
2024-05-09T21:47:19.463Z,4.70
2024-05-09T21:49:21.991Z,4.25
2024-05-09T21:51:24.700Z,4.18
2024-05-09T21:55:30.219Z,3.80
2024-05-09T21:57:32.630Z,4.10
2024-05-09T21:59:34.994Z,4.45
2024-05-09T22:01:37.374Z,4.30
2024-05-09T22:03:40.021Z,4.32
2024-05-09T22:07:47.487Z,4.78
2024-05-09T22:09:49.803Z,4.22
2024-05-09T22:11:53.908Z,4.43
2024-05-09T22:13:56.728Z,3.95
2024-05-09T22:15:59.133Z,4.55
2024-05-09T22:18:01.507Z,4.47
2024-05-09T22:20:11.711Z,4.68
2024-05-09T22:22:17.176Z,4.50
2024-05-09T22:24:19.580Z,4.07
2024-05-09T22:26:21.798Z,3.90
2024-05-09T22:28:24.119Z,4.45
2024-05-09T22:30:34.436Z,4.60
2024-05-09T22:32:40.510Z,4.90
2024-05-09T22:34:42.934Z,4.32
2024-05-09T22:36:45.261Z,4.38
2024-05-09T22:38:47.520Z,4.85
2024-05-09T22:40:50.259Z,4.93
2024-05-09T22:42:52.917Z,4.32
2024-05-09T22:44:55.341Z,4.72
2024-05-09T22:46:57.667Z,5.03
2024-05-09T22:49:00.099Z,4.65
2024-05-09T22:51:02.479Z,4.32
2024-05-09T22:53:05.765Z,4.70
2024-05-09T22:55:08.311Z,4.13
2024-05-09T22:59:13.295Z,4.78
2024-05-09T23:03:21.512Z,4.87
2024-05-09T23:05:24.225Z,5.22
2024-05-09T23:07:26.585Z,5.60
2024-05-09T23:09:28.936Z,5.45
2024-05-09T23:11:31.221Z,5.47
2024-05-09T23:13:34.803Z,5.78
2024-05-09T23:15:40.146Z,5.85
2024-05-09T23:17:42.551Z,4.97
2024-05-09T23:19:44.883Z,5.78
2024-05-09T23:21:47.194Z,5.65
2024-05-09T23:23:49.470Z,5.40
2024-05-09T23:25:51.733Z,6.05
2024-05-09T23:27:54.033Z,5.57
2024-05-09T23:29:56.270Z,5.25
2024-05-09T23:31:58.495Z,5.50
2024-05-09T23:34:00.845Z,5.80
2024-05-09T23:36:03.321Z,5.10
2024-05-09T23:38:05.682Z,6.35
2024-05-09T23:40:09.714Z,5.03
2024-05-09T23:42:12.112Z,5.50
2024-05-09T23:44:14.356Z,5.60
2024-05-09T23:46:16.684Z,5.57
2024-05-09T23:48:19.031Z,6.25
2024-05-09T23:50:30.194Z,6.30
2024-05-09T23:52:36.613Z,6.63
2024-05-09T23:56:41.079Z,5.97
2024-05-09T23:58:43.462Z,7.20
